Time,TemperatureF,DewpointF,PressureIn,WindDirection,WindDirectionDegrees,WindSpeedMPH,WindSpeedGustMPH,Humidity,HourlyPrecipIn,Conditions,Clouds,dailyrainin,SoftwareType,DateUTC
2013-09-17 00:13:00,45.6,44.0,30.40,NW,305,0.0,-999.0,95,-99.99,,,0.11,weatherlink.com 1.10,2013-09-17 04:13:00,
2013-09-17 00:28:00,45.4,44.0,30.40,NW,305,0.0,-999.0,95,-99.99,,,0.11,weatherlink.com 1.10,2013-09-17 04:28:00,
2013-09-17 00:43:00,44.9,44.0,30.40,NW,305,0.0,-999.0,95,-99.99,,,0.11,weatherlink.com 1.10,2013-09-17 04:43:00,
2013-09-17 00:58:00,44.2,43.0,30.40,NW,305,0.0,-999.0,95,-99.99,,,0.11,weatherlink.com 1.10,2013-09-17 04:58:00,
2013-09-17 01:13:00,43.6,42.0,30.40,NW,305,0.0,-999.0,95,-99.99,,,0.11,weatherlink.com 1.10,2013-09-17 05:13:00,
2013-09-17 01:28:00,43.2,42.0,30.40,NW,305,0.0,-999.0,95,-99.99,,,0.11,weatherlink.com 1.10,2013-09-17 05:28:00,
2013-09-17 01:43:00,42.8,42.0,30.40,NW,305,0.0,-999.0,95,-99.99,,,0.11,weatherlink.com 1.10,2013-09-17 05:43:00,
2013-09-17 01:58:00,42.7,42.0,30.41,NW,305,0.0,-999.0,96,-99.99,,,0.11,weatherlink.com 1.10,2013-09-17 05:58:00,
2013-09-17 02:13:00,42.4,41.0,30.41,NW,305,0.0,-999.0,96,-99.99,,,0.11,weatherlink.com 1.10,2013-09-17 06:13:00,
2013-09-17 02:28:00,42.1,41.0,30.41,NW,305,0.0,-999.0,96,-99.99,,,0.11,weatherlink.com 1.10,2013-09-17 06:28:00,
2013-09-17 02:43:00,41.8,41.0,30.42,NW,305,0.0,-999.0,96,-99.99,,,0.11,weatherlink.com 1.10,2013-09-17 06:43:00,
2013-09-17 02:58:00,41.4,40.0,30.42,NW,305,0.0,-999.0,96,-99.99,,,0.11,weatherlink.com 1.10,2013-09-17 06:58:00,
2013-09-17 03:13:00,41.3,40.0,30.42,NW,305,0.0,-999.0,96,-99.99,,,0.11,weatherlink.com 1.10,2013-09-17 07:13:00,
2013-09-17 03:28:00,40.9,40.0,30.42,NW,305,0.0,-999.0,96,-99.99,,,0.11,weatherlink.com 1.10,2013-09-17 07:28:00,
2013-09-17 03:43:00,40.9,40.0,30.43,NW,305,0.0,-999.0,96,-99.99,,,0.11,weatherlink.com 1.10,2013-09-17 07:43:00,
2013-09-17 03:58:00,40.9,40.0,30.43,NW,305,0.0,-999.0,96,-99.99,,,0.11,weatherlink.com 1.10,2013-09-17 07:58:00,
2013-09-17 04:13:00,40.5,40.0,30.43,NW,305,0.0,-999.0,96,-99.99,,,0.00,weatherlink.com 1.10,2013-09-17 08:13:00,
2013-09-17 04:28:00,40.3,39.0,30.43,NW,305,0.0,-999.0,96,-99.99,,,0.00,weatherlink.com 1.10,2013-09-17 08:28:00,
2013-09-17 04:43:00,40.1,39.0,30.44,NW,305,0.0,-999.0,96,-99.99,,,0.00,weatherlink.com 1.10,2013-09-17 08:43:00,
2013-09-17 04:58:00,39.6,39.0,30.44,NW,305,0.0,-999.0,96,-99.99,,,0.00,weatherlink.com 1.10,2013-09-17 08:58:00,
2013-09-17 05:13:00,39.4,39.0,30.44,NW,305,0.0,-999.0,97,-99.99,,,0.00,weatherlink.com 1.10,2013-09-17 09:13:00,
2013-09-17 05:28:00,39.1,38.0,30.45,NW,305,0.0,-999.0,96,-99.99,,,0.00,weatherlink.com 1.10,2013-09-17 09:28:00,
2013-09-17 05:43:00,39.2,39.0,30.45,NW,305,0.0,-999.0,97,-99.99,,,0.00,weatherlink.com 1.10,2013-09-17 09:43:00,
2013-09-17 05:58:00,39.2,39.0,30.45,NW,305,0.0,-999.0,97,-99.99,,,0.00,weatherlink.com 1.10,2013-09-17 09:58:00,
2013-09-17 06:13:00,39.1,38.0,30.46,NW,305,0.0,-999.0,97,-99.99,,,0.00,weatherlink.com 1.10,2013-09-17 10:13:00,
2013-09-17 06:29:00,39.0,38.0,30.46,NW,305,0.0,-999.0,97,-99.99,,,0.00,weatherlink.com 1.10,2013-09-17 10:29:00,
2013-09-17 06:44:00,38.9,38.0,30.47,NW,305,1.0,-999.0,97,-99.99,,,0.00,weatherlink.com 1.10,2013-09-17 10:44:00,
2013-09-17 06:59:00,38.6,38.0,30.47,NW,305,0.0,-999.0,97,-99.99,,,0.00,weatherlink.com 1.10,2013-09-17 10:59:00,
2013-09-17 07:14:00,38.6,38.0,30.48,NW,305,0.0,-999.0,97,-99.99,,,0.00,weatherlink.com 1.10,2013-09-17 11:14:00,
2013-09-17 07:29:00,38.9,38.0,30.48,NW,305,0.0,-999.0,97,-99.99,,,0.00,weatherlink.com 1.10,2013-09-17 11:29:00,
2013-09-17 07:44:00,39.4,39.0,30.49,NW,305,0.0,-999.0,97,-99.99,,,0.00,weatherlink.com 1.10,2013-09-17 11:44:00,
2013-09-17 07:59:00,40.0,39.0,30.49,NW,305,0.0,-999.0,97,-99.99,,,0.00,weatherlink.com 1.10,2013-09-17 11:59:00,
2013-09-17 08:14:00,40.8,40.0,30.49,NW,304,1.0,-999.0,97,-99.99,,,0.00,weatherlink.com 1.10,2013-09-17 12:14:00,
2013-09-17 08:29:00,41.5,41.0,30.50,NW,304,0.0,-999.0,97,-99.99,,,0.00,weatherlink.com 1.10,2013-09-17 12:29:00,
2013-09-17 08:44:00,42.6,42.0,30.50,NW,304,0.0,-999.0,97,-99.99,,,0.00,weatherlink.com 1.10,2013-09-17 12:44:00,
2013-09-17 08:59:00,44.4,44.0,30.51,NW,304,2.0,-999.0,98,-99.99,,,0.00,weatherlink.com 1.10,2013-09-17 12:59:00,
2013-09-17 09:14:00,46.3,46.0,30.51,NW,304,1.0,-999.0,97,-99.99,,,0.00,weatherlink.com 1.10,2013-09-17 13:14:00,
2013-09-17 09:29:00,48.2,45.0,30.52,NW,309,0.0,-999.0,89,-99.99,,,0.00,weatherlink.com 1.10,2013-09-17 13:29:00,
2013-09-17 09:44:00,50.2,46.0,30.52,NW,309,0.0,-999.0,84,-99.99,,,0.00,weatherlink.com 1.10,2013-09-17 13:44:00,
2013-09-17 09:59:00,51.5,43.0,30.51,ENE,76,2.0,-999.0,74,-99.99,,,0.00,weatherlink.com 1.10,2013-09-17 13:59:00,
2013-09-17 10:14:00,52.5,44.0,30.51,ESE,114,0.0,-999.0,72,-99.99,,,0.00,weatherlink.com 1.10,2013-09-17 14:14:00,
2013-09-17 10:29:00,54.2,43.0,30.51,East,85,0.0,-999.0,67,-99.99,,,0.00,weatherlink.com 1.10,2013-09-17 14:29:00,
2013-09-17 10:44:00,54.8,42.0,30.50,ESE,112,1.0,-999.0,62,-99.99,,,0.00,weatherlink.com 1.10,2013-09-17 14:44:00,
2013-09-17 10:59:00,56.4,42.0,30.50,East,93,0.0,-999.0,59,-99.99,,,0.00,weatherlink.com 1.10,2013-09-17 14:59:00,
2013-09-17 11:14:00,57.8,44.0,30.50,ENE,70,0.0,-999.0,60,-99.99,,,0.00,weatherlink.com 1.10,2013-09-17 15:14:00,
2013-09-17 11:29:00,59.2,41.0,30.50,East,98,7.0,-999.0,52,-99.99,,,0.00,weatherlink.com 1.10,2013-09-17 15:29:00,
2013-09-17 11:45:00,58.7,43.0,30.49,NNE,22,2.0,-999.0,56,-99.99,,,0.00,weatherlink.com 1.10,2013-09-17 15:45:00,
2013-09-17 12:00:00,59.1,42.0,30.49,NE,44,0.0,-999.0,53,-99.99,,,0.00,weatherlink.com 1.10,2013-09-17 16:00:00,
2013-09-17 12:15:00,59.6,42.0,30.48,NNW,327,0.0,-999.0,53,-99.99,,,0.00,weatherlink.com 1.10,2013-09-17 16:15:00,
2013-09-17 12:30:00,60.9,41.0,30.48,ENE,78,0.0,-999.0,48,-99.99,,,0.00,weatherlink.com 1.10,2013-09-17 16:30:00,
2013-09-17 12:45:00,60.3,41.0,30.48,East,84,5.0,-999.0,50,-99.99,,,0.00,weatherlink.com 1.10,2013-09-17 16:45:00,
2013-09-17 13:00:00,61.7,42.0,30.47,SE,139,1.0,-999.0,49,-99.99,,,0.00,weatherlink.com 1.10,2013-09-17 17:00:00,
2013-09-17 13:15:00,61.1,42.0,30.46,ESE,121,0.0,-999.0,49,-99.99,,,0.00,weatherlink.com 1.10,2013-09-17 17:15:00,
2013-09-17 13:30:00,61.8,42.0,30.46,ESE,116,0.0,-999.0,49,-99.99,,,0.00,weatherlink.com 1.10,2013-09-17 17:30:00,
2013-09-17 13:45:00,62.6,42.0,30.45,East,83,0.0,-999.0,47,-99.99,,,0.00,weatherlink.com 1.10,2013-09-17 17:45:00,
2013-09-17 14:00:00,63.7,43.0,30.44,ENE,69,1.0,-999.0,48,-99.99,,,0.00,weatherlink.com 1.10,2013-09-17 18:00:00,
2013-09-17 14:15:00,64.4,42.0,30.44,NE,51,5.0,-999.0,45,-99.99,,,0.00,weatherlink.com 1.10,2013-09-17 18:15:00,
2013-09-17 14:30:00,63.6,43.0,30.43,ESE,118,0.0,-999.0,47,-99.99,,,0.00,weatherlink.com 1.10,2013-09-17 18:30:00,
2013-09-17 14:45:00,63.0,43.0,30.42,NW,318,0.0,-999.0,48,-99.99,,,0.00,weatherlink.com 1.10,2013-09-17 18:45:00,
2013-09-17 15:00:00,64.1,44.0,30.41,ENE,70,0.0,-999.0,48,-99.99,,,0.00,weatherlink.com 1.10,2013-09-17 19:00:00,
2013-09-17 15:15:00,65.0,42.0,30.41,East,91,5.0,-999.0,44,-99.99,,,0.00,weatherlink.com 1.10,2013-09-17 19:15:00,
2013-09-17 15:30:00,64.4,43.0,30.40,ESE,113,0.0,-999.0,46,-99.99,,,0.00,weatherlink.com 1.10,2013-09-17 19:30:00,
2013-09-17 15:45:00,64.6,43.0,30.39,East,97,1.0,-999.0,45,-99.99,,,0.00,weatherlink.com 1.10,2013-09-17 19:45:00,
2013-09-17 16:00:00,65.7,43.0,30.39,East,99,2.0,-999.0,44,-99.99,,,0.00,weatherlink.com 1.10,2013-09-17 20:00:00,
2013-09-17 16:15:00,66.0,43.0,30.39,ENE,63,0.0,-999.0,44,-99.99,,,0.00,weatherlink.com 1.10,2013-09-17 20:15:00,
2013-09-17 16:30:00,64.9,43.0,30.38,ESE,110,0.0,-999.0,46,-99.99,,,0.00,weatherlink.com 1.10,2013-09-17 20:30:00,
2013-09-17 16:45:00,65.2,43.0,30.37,East,80,0.0,-999.0,44,-99.99,,,0.00,weatherlink.com 1.10,2013-09-17 20:45:00,
2013-09-17 17:00:00,64.7,45.0,30.36,East,95,0.0,-999.0,49,-99.99,,,0.00,weatherlink.com 1.10,2013-09-17 21:00:00,
2013-09-17 17:15:00,64.8,45.0,30.36,ENE,74,0.0,-999.0,49,-99.99,,,0.00,weatherlink.com 1.10,2013-09-17 21:15:00,
2013-09-17 17:30:00,64.6,47.0,30.36,ENE,76,0.0,-999.0,53,-99.99,,,0.00,weatherlink.com 1.10,2013-09-17 21:30:00,
2013-09-17 17:45:00,64.6,48.0,30.36,ENE,76,0.0,-999.0,55,-99.99,,,0.00,weatherlink.com 1.10,2013-09-17 21:45:00,
2013-09-17 18:00:00,63.7,43.0,30.35,East,82,0.0,-999.0,48,-99.99,,,0.00,weatherlink.com 1.10,2013-09-17 22:00:00,
2013-09-17 18:15:00,62.6,42.0,30.36,East,82,0.0,-999.0,48,-99.99,,,0.00,weatherlink.com 1.10,2013-09-17 22:15:00,
2013-09-17 18:30:00,62.0,45.0,30.35,East,82,0.0,-999.0,54,-99.99,,,0.00,weatherlink.com 1.10,2013-09-17 22:30:00,
2013-09-17 19:00:00,58.4,49.0,30.34,East,82,0.0,-999.0,70,-99.99,,,0.00,weatherlink.com 1.10,2013-09-17 23:00:00,
2013-09-17 19:15:00,56.7,48.0,30.33,East,82,0.0,-999.0,72,-99.99,,,0.00,weatherlink.com 1.10,2013-09-17 23:15:00,
2013-09-17 19:30:00,55.3,48.0,30.34,East,82,0.0,-999.0,76,-99.99,,,0.00,weatherlink.com 1.10,2013-09-17 23:30:00,
2013-09-17 19:45:00,54.2,48.0,30.34,East,82,0.0,-999.0,79,-99.99,,,0.00,weatherlink.com 1.10,2013-09-17 23:45:00,
2013-09-17 20:00:00,53.3,48.0,30.34,East,82,0.0,-999.0,83,-99.99,,,0.00,weatherlink.com 1.10,2013-09-18 00:00:00,
2013-09-17 20:15:00,52.5,48.0,30.34,East,82,0.0,-999.0,85,-99.99,,,0.00,weatherlink.com 1.10,2013-09-18 00:15:00,
2013-09-17 20:30:00,51.9,48.0,30.34,East,82,0.0,-999.0,87,-99.99,,,0.00,weatherlink.com 1.10,2013-09-18 00:30:00,
2013-09-17 20:45:00,51.5,48.0,30.33,East,82,0.0,-999.0,88,-99.99,,,0.00,weatherlink.com 1.10,2013-09-18 00:45:00,
2013-09-17 21:00:00,51.1,48.0,30.33,East,82,0.0,-999.0,88,-99.99,,,0.00,weatherlink.com 1.10,2013-09-18 01:00:00,
2013-09-17 21:15:00,50.6,48.0,30.33,East,82,0.0,-999.0,89,-99.99,,,0.00,weatherlink.com 1.10,2013-09-18 01:15:00,
2013-09-17 21:31:00,50.1,47.0,30.33,East,82,0.0,-999.0,90,-99.99,,,0.00,weatherlink.com 1.10,2013-09-18 01:31:00,
2013-09-17 21:46:00,49.2,47.0,30.32,East,82,0.0,-999.0,90,-99.99,,,0.00,weatherlink.com 1.10,2013-09-18 01:46:00,
2013-09-17 22:01:00,48.7,46.0,30.32,East,82,0.0,-999.0,91,-99.99,,,0.00,weatherlink.com 1.10,2013-09-18 02:01:00,
2013-09-17 22:16:00,48.2,46.0,30.32,East,82,0.0,-999.0,92,-99.99,,,0.00,weatherlink.com 1.10,2013-09-18 02:16:00,
2013-09-17 22:31:00,48.1,46.0,30.32,East,82,0.0,-999.0,93,-99.99,,,0.00,weatherlink.com 1.10,2013-09-18 02:31:00,
2013-09-17 23:06:00,47.3,45.0,30.32,East,82,0.0,-999.0,93,-99.99,,,0.00,weatherlink.com 1.10,2013-09-18 03:06:00,
2013-09-17 23:16:00,47.1,45.0,30.32,East,82,0.0,-999.0,93,-99.99,,,0.00,weatherlink.com 1.10,2013-09-18 03:16:00,
2013-09-17 23:31:00,47.2,45.0,30.32,East,82,0.0,-999.0,93,-99.99,,,0.00,weatherlink.com 1.10,2013-09-18 03:31:00,
2013-09-17 23:46:00,47.2,45.0,30.32,East,82,0.0,-999.0,92,-99.99,,,0.00,weatherlink.com 1.10,2013-09-18 03:46:00,